Time;durP1;ratioP1;P1;durP2;ratioP2;P2;SDS_P1;SDS_P2;PMS_P1;PMS_P2;Temp;Humidity;BMP_temperature;BMP_pressure;BME280_temperature;BME280_humidity;BME280_pressure;Samples;Min_cycle;Max_cycle;Signal;HPM_P1;HPM_P2
2022/01/07 00:00:25;;;;;;;2.80;1.90;;;11.60;99.90;;;;;;5051421;28;20199;-67
2022/01/07 00:02:56;;;;;;;3.47;2.30;;;11.60;99.90;;;;;;5037189;28;20289;-67
2022/01/07 00:05:24;;;;;;;3.70;2.23;;;11.60;99.90;;;;;;5032415;28;20202;-67
2022/01/07 00:07:51;;;;;;;4.90;2.10;;;11.60;99.90;;;;;;5049818;28;20186;-67
2022/01/07 00:10:23;;;;;;;3.60;2.13;;;11.60;99.90;;;;;;5054332;28;20690;-67
2022/01/07 00:12:50;;;;;;;2.90;2.10;;;11.60;99.90;;;;;;5056475;28;20218;-67
2022/01/07 00:15:18;;;;;;;3.80;2.00;;;11.60;99.90;;;;;;5047868;28;20248;-66
2022/01/07 00:17:45;;;;;;;2.30;1.83;;;11.60;99.90;;;;;;5025419;28;20187;-66
2022/01/07 00:20:14;;;;;;;2.33;1.83;;;11.60;99.90;;;;;;5019349;28;20174;-67
2022/01/07 00:22:44;;;;;;;4.27;2.20;;;11.60;99.90;;;;;;5022705;28;20204;-66
2022/01/07 00:25:13;;;;;;;3.50;1.80;;;11.60;99.90;;;;;;5053726;28;20191;-66
2022/01/07 00:27:40;;;;;;;5.87;2.10;;;11.50;99.90;;;;;;5043941;28;20187;-67
2022/01/07 00:30:10;;;;;;;2.50;2.00;;;11.50;99.90;;;;;;5025351;28;20192;-67
2022/01/07 00:32:38;;;;;;;3.03;2.00;;;11.40;99.90;;;;;;5024129;28;20309;-66
2022/01/07 00:35:06;;;;;;;4.60;2.07;;;11.50;99.90;;;;;;5029789;28;20186;-67
2022/01/07 00:37:32;;;;;;;4.13;1.90;;;11.50;99.90;;;;;;5047965;28;20589;-68
2022/01/07 00:39:58;;;;;;;3.93;2.17;;;11.50;99.90;;;;;;5027408;28;20898;-67
2022/01/07 00:42:25;;;;;;;5.77;2.10;;;11.50;99.90;;;;;;5023345;28;20257;-66
2022/01/07 00:44:51;;;;;;;5.70;2.13;;;11.40;99.90;;;;;;5021118;28;20210;-67
2022/01/07 00:47:18;;;;;;;3.87;2.00;;;11.40;99.90;;;;;;5044133;28;20201;-68
2022/01/07 00:49:47;;;;;;;4.70;1.90;;;11.40;99.90;;;;;;5027434;28;20183;-68
2022/01/07 00:52:13;;;;;;;5.90;2.00;;;11.30;99.90;;;;;;5020298;28;20207;-68
2022/01/07 00:54:40;;;;;;;4.90;1.73;;;11.30;99.90;;;;;;5023402;28;20249;-68
2022/01/07 00:57:06;;;;;;;5.67;1.90;;;11.30;99.90;;;;;;5029793;28;20290;-68
2022/01/07 00:59:33;;;;;;;3.07;1.70;;;11.30;99.90;;;;;;5025878;28;20188;-68
2022/01/07 01:02:00;;;;;;;4.83;2.47;;;11.30;99.90;;;;;;5039617;28;20536;-68
2022/01/07 01:04:26;;;;;;;2.43;1.87;;;11.30;99.90;;;;;;5032854;28;20294;-68
2022/01/07 01:06:53;;;;;;;3.03;2.07;;;11.30;99.90;;;;;;5026457;28;20186;-68
2022/01/07 01:09:19;;;;;;;6.67;2.00;;;11.30;99.90;;;;;;5041218;28;20187;-68
2022/01/07 01:11:47;;;;;;;4.53;2.00;;;11.30;99.90;;;;;;5024428;28;20198;-67
2022/01/07 01:14:13;;;;;;;2.40;1.90;;;11.30;99.90;;;;;;5037558;28;20770;-68
2022/01/07 01:16:40;;;;;;;4.20;2.13;;;11.30;99.90;;;;;;5041533;28;20685;-67
2022/01/07 01:19:07;;;;;;;3.83;1.77;;;11.20;99.90;;;;;;5011005;28;20992;-67
2022/01/07 01:21:35;;;;;;;3.03;1.93;;;11.20;99.90;;;;;;5020299;28;20203;-67
2022/01/07 01:24:01;;;;;;;4.60;2.00;;;11.30;99.90;;;;;;5020997;28;20188;-67
2022/01/07 01:26:28;;;;;;;3.60;1.83;;;11.30;99.90;;;;;;5039736;28;20294;-66
2022/01/07 01:28:54;;;;;;;4.17;2.07;;;11.30;99.90;;;;;;5010434;28;20243;-67
2022/01/07 01:31:21;;;;;;;2.83;1.83;;;11.30;99.90;;;;;;5021171;28;20568;-67
2022/01/07 01:33:48;;;;;;;2.73;1.90;;;11.20;99.90;;;;;;5022643;28;20706;-67
2022/01/07 01:36:15;;;;;;;2.53;1.80;;;11.20;99.90;;;;;;5002533;28;20179;-66
2022/01/07 01:38:42;;;;;;;4.27;2.00;;;11.20;99.90;;;;;;5039792;28;20275;-66
2022/01/07 01:41:10;;;;;;;4.97;2.03;;;11.10;99.90;;;;;;5026935;28;20195;-66
2022/01/07 01:43:37;;;;;;;3.00;1.87;;;11.10;99.90;;;;;;5044172;28;20202;-67
2022/01/07 01:46:04;;;;;;;2.70;1.90;;;11.20;99.90;;;;;;5029219;28;20192;-67
2022/01/07 01:48:30;;;;;;;3.13;2.00;;;11.20;99.90;;;;;;5006946;28;20245;-66
2022/01/07 01:50:57;;;;;;;2.47;1.80;;;11.10;99.90;;;;;;5041369;28;20695;-67
2022/01/07 01:53:25;;;;;;;2.83;1.83;;;11.10;99.90;;;;;;5027428;28;20238;-66
2022/01/07 01:55:53;;;;;;;2.37;1.53;;;11.10;99.90;;;;;;5030542;28;20191;-66
2022/01/07 01:58:19;;;;;;;4.63;1.83;;;11.10;99.90;;;;;;5023228;28;20200;-68
2022/01/07 02:00:46;;;;;;;3.67;1.90;;;11.10;99.90;;;;;;5032232;28;20659;-68
2022/01/07 02:03:12;;;;;;;2.13;1.63;;;11.10;99.90;;;;;;5045659;28;20222;-68
2022/01/07 02:05:38;;;;;;;2.47;1.80;;;11.10;99.90;;;;;;5040229;28;20194;-67
2022/01/07 02:08:05;;;;;;;6.23;1.90;;;11.00;99.90;;;;;;5045766;28;20605;-67
2022/01/07 02:10:31;;;;;;;1.90;1.70;;;11.00;99.90;;;;;;5017656;28;20195;-68
2022/01/07 02:12:57;;;;;;;3.43;1.63;;;11.00;99.90;;;;;;5057784;28;20219;-68
2022/01/07 02:15:24;;;;;;;1.67;1.47;;;11.00;99.90;;;;;;5046126;28;20203;-68
2022/01/07 02:17:53;;;;;;;4.53;1.43;;;11.00;99.90;;;;;;5031231;28;20188;-67
2022/01/07 02:20:25;;;;;;;3.23;1.70;;;11.00;99.90;;;;;;5029545;28;20207;-67
2022/01/07 02:22:53;;;;;;;2.07;1.53;;;10.90;99.90;;;;;;5019758;28;20542;-68
2022/01/07 02:25:22;;;;;;;3.57;1.80;;;10.90;99.90;;;;;;5058198;28;20182;-67
2022/01/07 02:27:49;;;;;;;4.37;1.67;;;10.90;99.90;;;;;;5034340;28;20230;-67
2022/01/07 02:30:21;;;;;;;2.80;1.87;;;10.90;99.90;;;;;;5033476;28;20199;-67
2022/01/07 02:32:48;;;;;;;4.40;1.43;;;10.90;99.90;;;;;;5020334;28;20253;-67
2022/01/07 02:35:18;;;;;;;3.73;1.73;;;10.80;99.90;;;;;;5030077;28;20203;-67
2022/01/07 02:37:45;;;;;;;2.40;1.70;;;10.80;99.90;;;;;;5037318;28;20918;-68
2022/01/07 02:40:12;;;;;;;2.00;1.70;;;10.90;99.90;;;;;;5028809;28;20192;-66
2022/01/07 02:42:39;;;;;;;2.97;1.90;;;10.90;99.90;;;;;;5023091;28;20948;-65
2022/01/07 02:45:08;;;;;;;1.90;1.70;;;10.90;99.90;;;;;;5054575;28;20270;-65
2022/01/07 02:47:53;;;;;;;3.03;1.70;;;10.90;99.90;;;;;;5036291;28;20285;-65
2022/01/07 02:50:25;;;;;;;2.20;1.47;;;10.90;99.90;;;;;;5037211;28;20195;-64
2022/01/07 02:52:53;;;;;;;2.27;1.70;;;10.80;99.90;;;;;;5054196;28;20742;-65
2022/01/07 02:55:20;;;;;;;4.07;1.70;;;10.80;99.90;;;;;;5045973;28;20227;-65
2022/01/07 02:57:47;;;;;;;2.07;1.57;;;10.80;99.90;;;;;;5056278;28;20667;-66
2022/01/07 03:00:17;;;;;;;3.10;1.73;;;10.80;99.90;;;;;;5010685;28;20183;-65
2022/01/07 03:02:45;;;;;;;4.27;2.03;;;10.80;99.90;;;;;;5037434;28;20305;-66
2022/01/07 03:05:13;;;;;;;2.97;1.77;;;10.80;99.90;;;;;;5022192;28;20251;-67
2022/01/07 03:07:40;;;;;;;4.37;1.80;;;10.80;99.90;;;;;;5046764;28;20228;-66
2022/01/07 03:10:08;;;;;;;2.70;1.80;;;10.80;99.90;;;;;;5035036;28;20191;-65
2022/01/07 03:12:37;;;;;;;2.97;1.60;;;10.70;99.90;;;;;;5030800;28;20219;-66
2022/01/07 03:15:08;;;;;;;2.20;1.60;;;10.70;99.90;;;;;;5033763;28;20286;-66
2022/01/07 03:17:37;;;;;;;2.63;1.80;;;10.70;99.90;;;;;;5010120;28;20187;-66
2022/01/07 03:20:10;;;;;;;2.33;1.73;;;10.70;99.90;;;;;;5027019;28;20282;-66
2022/01/07 03:22:36;;;;;;;12.00;2.03;;;10.80;99.90;;;;;;5038257;28;20260;-66
2022/01/07 03:25:04;;;;;;;4.10;1.97;;;10.80;99.90;;;;;;5032304;28;20282;-66
2022/01/07 03:27:30;;;;;;;2.50;1.70;;;10.80;99.90;;;;;;5033243;28;20202;-66
2022/01/07 03:29:57;;;;;;;3.50;2.00;;;10.80;99.90;;;;;;5030830;28;20559;-67
2022/01/07 03:32:24;;;;;;;4.97;1.70;;;10.80;99.90;;;;;;5022846;28;20278;-66
2022/01/07 03:34:54;;;;;;;10.00;2.10;;;10.80;99.90;;;;;;5033165;28;20191;-66
2022/01/07 03:37:20;;;;;;;4.27;2.10;;;10.80;99.90;;;;;;5052627;28;20195;-68
2022/01/07 03:39:46;;;;;;;2.93;1.80;;;10.90;99.90;;;;;;5035306;28;20202;-68
2022/01/07 03:42:13;;;;;;;3.53;2.00;;;10.90;99.90;;;;;;5058562;28;20193;-68
2022/01/07 03:44:39;;;;;;;3.80;2.10;;;10.80;99.90;;;;;;5032797;28;20282;-68
2022/01/07 03:47:06;;;;;;;3.40;2.13;;;10.80;99.90;;;;;;5041887;28;20191;-69
2022/01/07 03:49:32;;;;;;;3.47;2.10;;;10.80;99.90;;;;;;5012982;28;20196;-69
2022/01/07 03:51:58;;;;;;;4.33;2.03;;;10.80;99.90;;;;;;5028290;28;20896;-68
2022/01/07 03:54:25;;;;;;;4.73;2.20;;;10.80;99.90;;;;;;5038209;28;20182;-69
2022/01/07 03:56:51;;;;;;;4.53;2.30;;;10.80;99.90;;;;;;5018715;28;20352;-69
2022/01/07 03:59:18;;;;;;;6.17;2.27;;;10.80;99.90;;;;;;5010890;28;20198;-69
2022/01/07 04:01:44;;;;;;;3.27;2.03;;;10.80;99.90;;;;;;5044664;28;20194;-69
2022/01/07 04:04:10;;;;;;;4.10;2.03;;;10.90;99.90;;;;;;5033793;28;20206;-69
2022/01/07 04:06:37;;;;;;;4.07;2.10;;;10.90;99.90;;;;;;5050342;28;21104;-66
2022/01/07 04:09:03;;;;;;;3.17;2.00;;;10.90;99.90;;;;;;5039446;28;20203;-66
2022/01/07 04:11:29;;;;;;;2.40;2.20;;;10.90;99.90;;;;;;5021761;28;20195;-67
2022/01/07 04:13:56;;;;;;;4.80;2.13;;;10.90;99.90;;;;;;5037288;28;20215;-66
2022/01/07 04:16:22;;;;;;;4.90;2.23;;;10.90;99.90;;;;;;5032070;28;20390;-67
2022/01/07 04:18:49;;;;;;;2.40;1.70;;;10.90;99.90;;;;;;5032630;28;20184;-67
2022/01/07 04:21:15;;;;;;;3.50;1.93;;;10.90;99.90;;;;;;5017571;28;20183;-67
2022/01/07 04:23:41;;;;;;;3.60;2.00;;;10.90;99.90;;;;;;5037040;28;20187;-66
2022/01/07 04:26:08;;;;;;;4.13;2.10;;;10.90;99.90;;;;;;5037095;28;20200;-69
2022/01/07 04:28:34;;;;;;;2.97;2.17;;;10.90;99.90;;;;;;5012655;28;20203;-65
2022/01/07 04:31:00;;;;;;;4.80;2.00;;;10.90;99.90;;;;;;5045625;28;20195;-65
2022/01/07 04:33:29;;;;;;;5.40;2.20;;;10.90;99.90;;;;;;5049661;28;20310;-66
2022/01/07 04:35:59;;;;;;;3.87;2.00;;;10.90;99.90;;;;;;5053942;28;20188;-64
2022/01/07 04:38:26;;;;;;;5.47;2.40;;;10.90;99.90;;;;;;5018880;28;20477;-64
2022/01/07 04:40:53;;;;;;;4.07;1.80;;;10.90;99.90;;;;;;5036944;28;20217;-67
2022/01/07 04:43:19;;;;;;;4.47;2.03;;;11.00;99.90;;;;;;5034210;28;20210;-70
2022/01/07 04:45:46;;;;;;;4.27;1.90;;;11.00;99.90;;;;;;5047163;28;20198;-67
2022/01/07 04:48:15;;;;;;;4.30;2.03;;;11.00;99.90;;;;;;5017170;28;20195;-67
2022/01/07 04:50:42;;;;;;;3.50;2.30;;;11.00;99.90;;;;;;5028886;28;20244;-67
2022/01/07 04:53:08;;;;;;;4.17;1.80;;;11.00;99.90;;;;;;5016704;28;20203;-68
2022/01/07 04:55:39;;;;;;;4.90;2.00;;;10.90;99.90;;;;;;5049302;28;20204;-66
2022/01/07 04:58:10;;;;;;;7.17;2.07;;;10.90;99.90;;;;;;5024268;28;20195;-65
2022/01/07 05:00:39;;;;;;;5.10;2.23;;;10.90;99.90;;;;;;5047586;28;20218;-65
2022/01/07 05:03:05;;;;;;;4.33;2.00;;;10.90;99.90;;;;;;5027952;28;20267;-69
2022/01/07 05:05:32;;;;;;;4.13;2.03;;;11.00;99.90;;;;;;5059400;28;20197;-66
2022/01/07 05:07:58;;;;;;;2.23;1.73;;;11.00;99.90;;;;;;5021200;28;20196;-67
2022/01/07 05:13:42;;;;;;;3.83;1.93;;;11.00;99.90;;;;;;5052630;28;20223;-67
2022/01/07 05:16:10;;;;;;;7.13;2.17;;;10.90;99.90;;;;;;5033358;28;20198;-67
2022/01/07 05:18:37;;;;;;;4.37;1.80;;;10.90;99.90;;;;;;5044183;28;20259;-67
2022/01/07 05:21:03;;;;;;;2.70;1.80;;;10.90;99.90;;;;;;5017906;28;20683;-66
2022/01/07 05:23:32;;;;;;;4.03;1.80;;;10.90;99.90;;;;;;5036800;28;20255;-66
2022/01/07 05:25:58;;;;;;;6.10;1.70;;;10.90;99.90;;;;;;5040076;28;20183;-66
2022/01/07 05:28:25;;;;;;;1.83;1.50;;;10.90;99.90;;;;;;5040381;28;20187;-65
2022/01/07 05:30:51;;;;;;;4.67;1.80;;;10.90;99.90;;;;;;5046439;28;21026;-65
2022/01/07 05:33:17;;;;;;;2.60;1.77;;;10.90;99.90;;;;;;5049402;28;20215;-66
2022/01/07 05:35:44;;;;;;;3.10;1.80;;;10.90;99.90;;;;;;5039804;28;20195;-66
2022/01/07 05:38:10;;;;;;;3.80;1.93;;;10.90;99.90;;;;;;5032895;28;20186;-66
2022/01/07 05:40:36;;;;;;;2.87;1.87;;;10.90;99.90;;;;;;5047219;28;20192;-66
2022/01/07 05:43:03;;;;;;;5.43;2.03;;;11.00;99.90;;;;;;5049416;28;20179;-66
2022/01/07 05:45:30;;;;;;;4.00;1.90;;;11.00;99.90;;;;;;5030854;28;20194;-67
2022/01/07 05:47:56;;;;;;;3.70;2.00;;;11.00;99.90;;;;;;5050953;28;20199;-67
2022/01/07 05:50:25;;;;;;;3.13;1.90;;;11.00;99.90;;;;;;5028334;28;20191;-67
2022/01/07 05:52:52;;;;;;;5.00;1.70;;;11.00;99.90;;;;;;5036451;28;20199;-67
2022/01/07 05:55:19;;;;;;;2.20;1.70;;;11.00;99.90;;;;;;5034018;28;20190;-67
2022/01/07 05:57:45;;;;;;;2.50;1.80;;;11.00;99.90;;;;;;5047579;28;20192;-66
2022/01/07 06:00:12;;;;;;;2.37;1.77;;;10.90;99.90;;;;;;5021856;28;20278;-67
2022/01/07 06:02:40;;;;;;;2.07;1.63;;;11.00;99.90;;;;;;5040889;28;20262;-67
2022/01/07 06:05:07;;;;;;;2.03;1.80;;;11.00;99.90;;;;;;5032868;28;20196;-67
2022/01/07 06:07:33;;;;;;;3.73;1.80;;;11.00;99.90;;;;;;5016691;28;20194;-67
2022/01/07 06:10:00;;;;;;;2.00;1.80;;;11.00;99.90;;;;;;5009460;28;20183;-67
2022/01/07 06:12:26;;;;;;;6.67;1.80;;;11.00;99.90;;;;;;5041960;28;20214;-67
2022/01/07 06:14:52;;;;;;;3.00;1.60;;;11.00;99.90;;;;;;5031629;28;20190;-67
2022/01/07 06:17:19;;;;;;;3.00;1.73;;;11.00;99.90;;;;;;5038638;28;20184;-67
2022/01/07 06:19:45;;;;;;;2.10;1.60;;;11.00;99.90;;;;;;5027414;28;20301;-67
2022/01/07 06:22:12;;;;;;;2.43;1.70;;;11.00;99.90;;;;;;5038193;28;20183;-67
2022/01/07 06:24:38;;;;;;;4.47;1.70;;;11.00;99.90;;;;;;5038350;28;20628;-67
2022/01/07 06:27:05;;;;;;;6.13;1.87;;;11.00;99.90;;;;;;5023681;28;20295;-67
2022/01/07 06:29:31;;;;;;;3.40;1.70;;;11.00;99.90;;;;;;5030161;28;20639;-67
2022/01/07 06:31:58;;;;;;;2.87;1.80;;;11.10;99.90;;;;;;5048584;28;20521;-66
2022/01/07 06:34:25;;;;;;;5.03;1.70;;;11.10;99.90;;;;;;5024516;28;20562;-67
2022/01/07 06:36:52;;;;;;;2.87;1.60;;;11.10;99.90;;;;;;5043004;28;20180;-67
2022/01/07 06:39:20;;;;;;;3.20;2.07;;;11.20;99.90;;;;;;5029470;28;20266;-67
2022/01/07 06:41:50;;;;;;;6.53;1.97;;;11.20;99.90;;;;;;5043120;28;20670;-66
2022/01/07 06:44:18;;;;;;;3.20;1.67;;;11.30;99.90;;;;;;5040083;28;20188;-69
2022/01/07 06:46:45;;;;;;;2.80;1.73;;;11.30;99.90;;;;;;5028008;28;20191;-69
2022/01/07 06:49:13;;;;;;;2.73;2.17;;;11.40;99.90;;;;;;5057657;28;20179;-66
2022/01/07 06:51:42;;;;;;;3.83;1.63;;;11.50;99.90;;;;;;5045508;28;20187;-70
2022/01/07 06:54:11;;;;;;;3.13;1.90;;;11.60;99.90;;;;;;5041840;28;20292;-71
2022/01/07 06:56:44;;;;;;;6.30;1.70;;;11.60;99.90;;;;;;5015941;28;20802;-68
2022/01/07 06:59:12;;;;;;;3.37;2.07;;;11.70;99.90;;;;;;5046531;28;20691;-68
2022/01/07 07:01:40;;;;;;;2.23;1.53;;;11.80;99.90;;;;;;5046699;28;20180;-67
2022/01/07 07:04:07;;;;;;;5.17;1.80;;;11.90;99.90;;;;;;5057272;28;20231;-66
2022/01/07 07:06:34;;;;;;;4.53;1.70;;;11.90;99.90;;;;;;5031680;28;20221;-66
2022/01/07 07:09:02;;;;;;;2.53;1.70;;;12.00;99.90;;;;;;5001107;28;20279;-67
2022/01/07 07:11:29;;;;;;;2.40;1.77;;;12.00;99.90;;;;;;5008472;28;20615;-68
2022/01/07 07:13:55;;;;;;;7.03;1.90;;;12.10;99.90;;;;;;4945699;28;1808069;-68
2022/01/07 07:16:22;;;;;;;2.30;1.83;;;12.10;99.90;;;;;;5035704;28;20227;-67
2022/01/07 07:18:49;;;;;;;3.93;2.00;;;12.30;99.90;;;;;;5027373;28;20631;-65
2022/01/07 07:21:15;;;;;;;2.80;1.77;;;12.60;99.90;;;;;;5027800;28;20275;-65
2022/01/07 07:23:42;;;;;;;4.77;1.83;;;12.60;99.90;;;;;;5032192;28;20283;-65
2022/01/07 07:26:08;;;;;;;2.50;1.87;;;12.50;99.90;;;;;;5027577;28;20287;-67
2022/01/07 07:28:36;;;;;;;2.93;1.70;;;12.50;99.90;;;;;;5036239;28;20501;-67
2022/01/07 07:31:11;;;;;;;3.07;1.93;;;12.40;99.90;;;;;;5027678;28;20184;-65
2022/01/07 07:36:27;;;;;;;5.00;2.10;;;12.40;99.90;;;;;;5021183;28;20646;-63
2022/01/07 07:39:09;;;;;;;4.03;2.30;;;12.60;99.90;;;;;;5018846;28;20183;-63
2022/01/07 07:41:37;;;;;;;4.70;2.10;;;13.60;99.90;;;;;;5021669;28;20698;-65
2022/01/07 07:44:06;;;;;;;5.00;1.90;;;13.60;99.90;;;;;;5040427;28;20279;-66
2022/01/07 07:46:35;;;;;;;2.83;1.80;;;13.30;99.90;;;;;;5026710;28;20734;-66
2022/01/07 07:49:05;;;;;;;5.20;1.83;;;13.10;99.90;;;;;;5030562;28;20706;-66
2022/01/07 07:51:32;;;;;;;5.23;1.90;;;12.90;99.90;;;;;;5043846;28;20219;-66
2022/01/07 07:54:00;;;;;;;4.27;1.80;;;12.90;99.90;;;;;;5026436;28;20265;-65
2022/01/07 07:56:27;;;;;;;4.33;1.80;;;12.80;99.90;;;;;;5014717;28;20182;-66
2022/01/07 07:58:57;;;;;;;3.60;1.70;;;12.80;99.90;;;;;;5042408;28;20528;-66
2022/01/07 08:01:24;;;;;;;3.80;1.70;;;12.80;99.90;;;;;;5046787;28;20187;-65
2022/01/07 08:03:52;;;;;;;6.83;2.03;;;12.90;99.90;;;;;;5044801;28;20281;-65
2022/01/07 08:06:18;;;;;;;3.50;1.87;;;12.90;99.90;;;;;;5044385;28;20202;-65
2022/01/07 08:08:46;;;;;;;2.20;1.60;;;13.00;99.90;;;;;;5014375;28;20203;-65
2022/01/07 08:11:14;;;;;;;3.30;1.63;;;13.00;99.90;;;;;;5025457;28;21027;-65
2022/01/07 08:16:25;;;;;;;5.00;2.10;;;13.10;99.90;;;;;;5022653;28;20644;-65
2022/01/07 08:18:56;;;;;;;3.20;2.00;;;13.10;99.90;;;;;;5042029;28;20711;-66
2022/01/07 08:21:28;;;;;;;4.17;2.10;;;13.20;99.90;;;;;;5025463;28;20188;-67
2022/01/07 08:23:56;;;;;;;6.93;1.93;;;13.20;99.90;;;;;;5040225;28;20662;-68
2022/01/07 08:26:24;;;;;;;3.50;2.00;;;13.20;99.90;;;;;;5022767;28;20637;-69
2022/01/07 08:28:56;;;;;;;3.53;1.93;;;13.20;99.90;;;;;;5025161;28;20191;-69
2022/01/07 08:36:46;;;;;;;5.37;2.40;;;13.30;99.90;;;;;;5029829;28;20187;-68
2022/01/07 08:39:12;;;;;;;3.63;2.20;;;13.40;99.90;;;;;;5032344;28;20349;-69
2022/01/07 08:41:40;;;;;;;2.80;1.90;;;13.40;99.90;;;;;;5012380;28;20217;-69
2022/01/07 08:44:07;;;;;;;3.50;1.90;;;13.50;99.90;;;;;;5021504;28;20223;-68
2022/01/07 08:46:33;;;;;;;3.23;1.80;;;13.60;99.90;;;;;;5009738;28;20577;-67
2022/01/07 08:49:01;;;;;;;3.67;1.90;;;13.60;99.90;;;;;;5026961;28;20214;-67
2022/01/07 08:51:29;;;;;;;3.23;1.87;;;13.60;99.90;;;;;;5047246;28;20199;-67
2022/01/07 08:53:59;;;;;;;2.70;1.60;;;13.70;99.90;;;;;;5013490;28;20219;-68
2022/01/07 08:56:27;;;;;;;3.33;1.80;;;13.70;99.90;;;;;;5042947;28;20193;-67
2022/01/07 08:58:57;;;;;;;5.03;1.80;;;13.80;99.90;;;;;;5037388;28;20528;-68
2022/01/07 09:01:28;;;;;;;3.47;1.70;;;13.80;99.90;;;;;;5043309;28;20191;-68
2022/01/07 09:03:54;;;;;;;5.73;2.00;;;14.00;99.90;;;;;;5027010;28;20211;-68
2022/01/07 09:06:21;;;;;;;5.77;2.10;;;14.00;99.90;;;;;;5044236;28;20195;-67
2022/01/07 09:08:48;;;;;;;3.70;1.73;;;14.00;99.90;;;;;;5045084;28;20278;-68
2022/01/07 09:11:14;;;;;;;4.63;2.00;;;14.00;99.90;;;;;;5019968;28;20270;-67
2022/01/07 09:13:42;;;;;;;5.67;2.73;;;14.20;99.90;;;;;;5046849;28;20303;-67
2022/01/07 09:16:09;;;;;;;4.47;2.10;;;14.20;99.90;;;;;;5038646;28;20206;-68
2022/01/07 09:18:35;;;;;;;4.33;2.10;;;14.20;99.90;;;;;;5042809;28;20739;-69
2022/01/07 09:21:02;;;;;;;5.20;1.90;;;14.20;99.90;;;;;;5042000;28;20334;-67
2022/01/07 09:23:28;;;;;;;3.63;2.10;;;14.30;99.90;;;;;;5024272;28;20192;-70
2022/01/07 09:25:55;;;;;;;5.17;2.67;;;14.30;99.90;;;;;;5040856;28;20199;-68
2022/01/07 09:28:21;;;;;;;5.83;2.93;;;14.30;99.90;;;;;;5022581;28;20195;-67
2022/01/07 09:30:48;;;;;;;4.07;2.80;;;14.40;99.90;;;;;;5003470;28;20448;-67
2022/01/07 09:33:14;;;;;;;8.03;2.43;;;14.30;99.90;;;;;;5014158;28;21251;-68
2022/01/07 09:35:41;;;;;;;8.40;2.80;;;14.40;99.90;;;;;;5026296;28;20219;-68
2022/01/07 09:38:08;;;;;;;4.03;1.90;;;14.40;99.90;;;;;;5006262;28;20191;-68
2022/01/07 09:40:34;;;;;;;4.30;1.83;;;14.50;99.90;;;;;;5017814;28;20188;-67
2022/01/07 09:43:05;;;;;;;2.57;1.80;;;14.60;99.90;;;;;;5029614;28;20971;-67
2022/01/07 09:45:34;;;;;;;2.57;1.50;;;14.70;99.90;;;;;;5042350;28;20203;-68
2022/01/07 09:48:01;;;;;;;3.47;1.93;;;14.70;99.90;;;;;;5034233;28;20957;-67
2022/01/07 09:50:30;;;;;;;8.43;1.60;;;14.80;99.90;;;;;;5021956;28;20185;-67
2022/01/07 09:52:57;;;;;;;3.10;1.50;;;14.90;99.90;;;;;;5012184;28;20692;-69
2022/01/07 09:55:24;;;;;;;2.70;1.40;;;15.10;99.90;;;;;;5034262;28;20198;-67
2022/01/07 09:57:50;;;;;;;2.97;1.70;;;15.10;99.90;;;;;;5037246;28;20195;-69
2022/01/07 10:00:17;;;;;;;4.00;1.60;;;15.10;99.90;;;;;;5029402;28;20235;-67
2022/01/07 10:03:07;;;;;;;2.03;1.50;;;15.20;99.90;;;;;;5030204;28;20204;-68
2022/01/07 10:05:50;;;;;;;4.47;1.57;;;15.20;99.90;;;;;;5029629;28;20227;-68
2022/01/07 10:08:27;;;;;;;8.83;1.60;;;15.30;99.90;;;;;;5030347;28;20275;-67
2022/01/07 10:11:20;;;;;;;5.77;1.87;;;15.30;99.90;;;;;;5005015;28;20644;-69
2022/01/07 10:14:32;;;;;;;1.93;1.50;;;15.30;99.90;;;;;;5030509;28;20219;-67
2022/01/07 10:17:01;;;;;;;3.23;1.60;;;15.30;99.90;;;;;;5017207;28;20217;-67
2022/01/07 10:19:41;;;;;;;3.20;1.80;;;15.40;99.90;;;;;;5045074;28;20206;-69
2022/01/07 10:22:16;;;;;;;20.37;2.67;;;15.50;99.90;;;;;;5044991;28;20219;-68
2022/01/07 10:25:04;;;;;;;18.70;2.50;;;15.50;99.90;;;;;;5010538;28;20191;-68
2022/01/07 10:27:39;;;;;;;3.10;1.60;;;15.50;99.90;;;;;;5015755;28;20195;-69
2022/01/07 10:30:25;;;;;;;2.53;1.60;;;15.60;99.90;;;;;;5025451;28;20589;-67
2022/01/07 10:32:56;;;;;;;4.70;1.50;;;15.70;99.90;;;;;;5040917;28;21286;-68
2022/01/07 10:35:25;;;;;;;6.23;1.67;;;15.80;99.90;;;;;;5025716;28;20188;-69
2022/01/07 10:38:02;;;;;;;4.33;1.50;;;16.00;99.90;;;;;;5023350;28;20668;-69
2022/01/07 10:40:40;;;;;;;2.77;1.30;;;16.10;99.90;;;;;;5013510;28;20187;-68
2022/01/07 10:43:24;;;;;;;4.60;1.50;;;16.30;99.90;;;;;;5027929;28;20192;-67
2022/01/07 10:46:01;;;;;;;2.53;1.27;;;16.90;99.90;;;;;;5050052;28;20183;-69
2022/01/07 10:49:02;;;;;;;3.07;1.60;;;16.90;99.90;;;;;;5046234;28;20183;-67
2022/01/07 10:51:36;;;;;;;4.33;1.80;;;17.60;99.90;;;;;;4995301;28;20207;-67
2022/01/07 10:54:10;;;;;;;4.10;1.73;;;19.70;99.90;;;;;;5020808;28;20210;-67
2022/01/07 10:56:47;;;;;;;3.70;1.70;;;21.00;99.90;;;;;;5024863;28;20699;-68
2022/01/07 10:59:15;;;;;;;4.60;1.63;;;19.60;99.90;;;;;;5031839;28;20612;-68
2022/01/07 11:01:48;;;;;;;3.60;1.50;;;19.00;99.90;;;;;;5013159;28;20198;-68
2022/01/07 11:04:32;;;;;;;4.03;1.57;;;18.90;99.90;;;;;;5026517;28;20286;-70
2022/01/07 11:07:02;;;;;;;4.07;1.27;;;18.70;99.90;;;;;;5000496;28;20198;-68
2022/01/07 11:09:28;;;;;;;10.63;1.80;;;18.40;99.90;;;;;;5019912;28;20199;-68
2022/01/07 11:12:01;;;;;;;4.77;1.70;;;18.20;99.90;;;;;;5044263;28;20283;-70
2022/01/07 11:14:37;;;;;;;5.90;2.00;;;18.30;99.90;;;;;;5016830;28;20668;-68
2022/01/07 11:17:04;;;;;;;6.70;2.13;;;18.30;99.90;;;;;;5030866;28;20195;-70
2022/01/07 11:19:42;;;;;;;8.13;2.10;;;18.20;99.90;;;;;;5034695;28;20196;-68
2022/01/07 11:22:14;;;;;;;4.63;1.80;;;18.10;99.90;;;;;;5030116;28;20361;-68
2022/01/07 11:24:47;;;;;;;6.63;1.90;;;18.00;99.90;;;;;;5039393;28;20270;-69
2022/01/07 11:27:25;;;;;;;2.90;1.53;;;17.80;99.90;;;;;;5028920;28;20812;-67
2022/01/07 11:30:03;;;;;;;3.30;1.70;;;17.70;99.90;;;;;;5028932;28;20276;-68
2022/01/07 11:32:34;;;;;;;6.43;1.87;;;17.60;99.90;;;;;;5045020;28;20351;-68
2022/01/07 11:35:19;;;;;;;8.23;1.70;;;17.50;99.90;;;;;;5015034;28;20364;-70
2022/01/07 11:37:48;;;;;;;4.77;2.00;;;17.50;99.90;;;;;;5018113;28;20246;-68
2022/01/07 11:40:32;;;;;;;4.33;1.80;;;17.40;99.90;;;;;;5026214;28;20632;-68
2022/01/07 11:43:05;;;;;;;6.13;2.00;;;17.40;99.90;;;;;;5033990;28;20183;-68
2022/01/07 11:45:39;;;;;;;5.97;1.60;;;17.40;99.90;;;;;;5037878;28;20203;-70
2022/01/07 11:48:25;;;;;;;3.93;2.60;;;17.30;99.90;;;;;;5025102;28;20262;-67
2022/01/07 11:50:59;;;;;;;3.50;1.60;;;17.30;99.90;;;;;;5022554;28;20272;-69
2022/01/07 11:53:29;;;;;;;3.60;1.50;;;17.30;99.90;;;;;;5031389;28;20218;-70
2022/01/07 11:56:02;;;;;;;3.07;1.73;;;17.20;99.90;;;;;;5012771;28;20183;-69
2022/01/07 11:58:41;;;;;;;4.97;2.10;;;17.20;99.90;;;;;;5027235;28;20206;-68
2022/01/07 12:01:39;;;;;;;5.80;2.43;;;17.10;99.90;;;;;;5026982;28;20179;-68
2022/01/07 12:04:28;;;;;;;7.10;3.40;;;17.10;99.90;;;;;;5038665;28;20682;-70
2022/01/07 12:07:01;;;;;;;6.77;3.63;;;17.10;99.90;;;;;;5016197;28;20188;-68
2022/01/07 12:09:36;;;;;;;6.63;3.60;;;17.10;99.90;;;;;;5021657;28;20242;-67
2022/01/07 12:12:13;;;;;;;8.93;5.10;;;17.10;99.90;;;;;;5002029;28;20898;-69
2022/01/07 12:14:51;;;;;;;9.10;4.80;;;17.00;99.90;;;;;;5018251;28;20188;-69
2022/01/07 12:17:21;;;;;;;10.17;4.03;;;16.90;99.90;;;;;;5028440;28;20191;-67
2022/01/07 12:19:51;;;;;;;6.60;3.63;;;17.00;99.90;;;;;;5028083;28;20184;-67
2022/01/07 12:22:20;;;;;;;9.60;4.37;;;16.90;99.90;;;;;;5027748;28;20289;-70
2022/01/07 12:24:49;;;;;;;8.43;4.30;;;16.80;99.90;;;;;;5026832;28;20187;-68
2022/01/07 12:27:22;;;;;;;8.37;5.37;;;16.70;99.90;;;;;;5041488;28;20180;-67
2022/01/07 12:29:56;;;;;;;5.70;3.90;;;16.70;99.90;;;;;;5030210;28;20180;-67
2022/01/07 12:32:32;;;;;;;6.13;3.77;;;16.50;99.90;;;;;;5025802;28;20211;-68
2022/01/07 12:34:59;;;;;;;8.70;5.47;;;16.50;99.90;;;;;;5027678;28;20185;-67
2022/01/07 12:37:26;;;;;;;10.27;6.60;;;16.50;99.90;;;;;;5022204;28;20215;-69
2022/01/07 12:39:59;;;;;;;12.50;7.93;;;16.50;99.90;;;;;;5045078;28;20194;-67
2022/01/07 12:42:35;;;;;;;14.13;7.00;;;16.50;99.90;;;;;;5006777;28;20286;-68
2022/01/07 12:45:02;;;;;;;12.73;8.10;;;16.40;99.90;;;;;;5024824;28;20221;-69
2022/01/07 12:47:31;;;;;;;15.43;9.00;;;16.40;99.90;;;;;;5025805;28;20195;-68
2022/01/07 12:50:04;;;;;;;12.03;8.03;;;16.30;99.90;;;;;;5043060;28;20187;-68
2022/01/07 12:52:37;;;;;;;16.40;8.63;;;16.30;99.90;;;;;;5004844;28;20212;-70
2022/01/07 12:55:11;;;;;;;18.37;9.10;;;16.20;99.90;;;;;;5025361;28;20247;-70
2022/01/07 12:57:49;;;;;;;20.27;10.30;;;16.20;99.90;;;;;;5021432;28;20894;-70
2022/01/07 13:00:36;;;;;;;15.97;10.17;;;16.20;99.90;;;;;;5021603;28;20599;-70
2022/01/07 13:03:12;;;;;;;17.60;9.90;;;16.30;99.90;;;;;;5050685;28;20273;-70
2022/01/07 13:05:42;;;;;;;16.23;9.20;;;16.30;99.90;;;;;;5023645;28;20278;-70
2022/01/07 13:08:18;;;;;;;13.07;7.70;;;16.30;99.90;;;;;;5003463;28;20195;-70
2022/01/07 13:10:50;;;;;;;22.10;12.20;;;16.10;99.90;;;;;;5040766;28;20187;-70